This is the latest recevied weather packets stored in our database for station/object AC4AG. If no packets are shown the sender has not sent any weather packets the latest 10 day(s).
| Time | Temp. | Humidity | Pressure | Rain* | Wind** | Luminosity | Snow |
|---|---|---|---|---|---|---|---|
| 1777724888 | 7.22° C | 85% | 1016.8 hPa | 0 mm | - | 169 W/m² | - |
| 1777724584 | 6.11° C | 91% | 1016.8 hPa | 0 mm | - | 149 W/m² | - |
| 1777724283 | 6.11° C | 92% | 1017 hPa | 0 mm | - | 143 W/m² | - |
| 1777723980 | 5.56° C | 94% | 1016.8 hPa | 0 mm | - | 104 W/m² | - |
| 1777723677 | 6.11° C | 94% | 1017 hPa | 0 mm | - | 70 W/m² | - |
| 1777723373 | 5.56° C | 98% | 1016.8 hPa | 0 mm | - | 120 W/m² | - |
| 1777723071 | 5° C | 98% | 1016.8 hPa | 0 mm | - | 100 W/m² | - |
| 1777722768 | 5° C | 97% | 1016.7 hPa | 0 mm | - | 40 W/m² | - |
| 1777722464 | 5.56° C | 95% | 1016.7 hPa | 0 mm | - | 38 W/m² | - |
| 1777722161 | 5.56° C | 95% | 1016.6 hPa | 0 mm | - | 49 W/m² | - |
| 1777721858 | 5.56° C | 95% | 1016.7 hPa | 0 mm | - | 61 W/m² | - |
| 1777721556 | 5° C | 97% | 1016.6 hPa | 0 mm | - | 62 W/m² | - |
| 1777721254 | 5° C | 97% | 1016.4 hPa | 0 mm | - | 54 W/m² | - |
| 1777720951 | 5° C | 97% | 1016.4 hPa | 0 mm | - | 31 W/m² | - |
| 1777720648 | 4.44° C | 99% | 1016.5 hPa | 0 mm | - | 34 W/m² | - |
| 1777720346 | 3.33° C | 99% | 1016.5 hPa | 0 mm | - | 27 W/m² | - |
| 1777720043 | 2.78° C | 99% | 1016.2 hPa | 0 mm | - | 20 W/m² | - |
| 1777719741 | 2.78° C | 99% | 1016.1 hPa | 0 mm | - | 13 W/m² | - |
| 1777719438 | 3.33° C | 99% | 1016.2 hPa | 0 mm | - | 10 W/m² | - |
| 1777719134 | 3.33° C | 99% | 1016.1 hPa | 0 mm | - | 6 W/m² | - |
| 1777718832 | 3.33° C | 98% | 1016 hPa | 0 mm | - | 4 W/m² | - |
| 1777718530 | 3.33° C | 98% | 1016.1 hPa | 0 mm | - | 2 W/m² | - |
| 1777718227 | 3.33° C | 99% | 1016 hPa | 0 mm | - | 1 W/m² | - |
| 1777717925 | 3.33° C | 98% | 1016.2 hPa | 0 mm | - | 1 W/m² | - |
| 1777717621 | 3.89° C | 98% | 1015.9 hPa | 0 mm | - | 0 W/m² | - |
* Rain latest hour (hover to see other rain measurements)
** Current wind speed in m/s (hover to see current wind gust speed)